createdAt,value
2019-02-19T00:00:54.322Z,7.98
2019-02-19T00:03:25.194Z,7.96
2019-02-19T00:05:55.928Z,8.00
2019-02-19T00:08:26.767Z,8.00
2019-02-19T00:10:57.614Z,8.02
2019-02-19T00:13:28.517Z,8.02
2019-02-19T00:15:59.380Z,8.03
2019-02-19T00:18:30.215Z,8.02
2019-02-19T00:21:00.754Z,8.01
2019-02-19T00:23:31.580Z,8.00
2019-02-19T00:26:02.398Z,7.98
2019-02-19T00:28:33.128Z,7.93
2019-02-19T00:31:03.986Z,7.96
2019-02-19T00:33:34.828Z,8.11
2019-02-19T00:36:05.662Z,8.13
2019-02-19T00:38:36.163Z,8.14
2019-02-19T00:41:06.612Z,7.87
2019-02-19T00:43:37.451Z,7.96
2019-02-19T00:46:09.385Z,7.86
2019-02-19T00:48:40.155Z,7.81
2019-02-19T00:51:10.967Z,7.75
2019-02-19T00:53:41.824Z,7.72
2019-02-19T00:56:12.734Z,7.68
2019-02-19T00:58:43.151Z,7.67
2019-02-19T01:01:13.949Z,7.67
2019-02-19T01:03:44.861Z,7.66
2019-02-19T01:06:15.680Z,7.65
2019-02-19T01:08:46.272Z,7.68
2019-02-19T01:11:16.786Z,7.65
2019-02-19T01:13:47.597Z,7.64
2019-02-19T01:16:18.433Z,7.63
2019-02-19T01:18:49.370Z,7.60
2019-02-19T01:21:20.530Z,7.60
2019-02-19T01:23:51.482Z,7.57
2019-02-19T01:26:22.393Z,7.55
2019-02-19T01:28:53.235Z,7.52
2019-02-19T01:31:24.050Z,7.48
2019-02-19T01:33:54.800Z,7.46
2019-02-19T01:36:25.614Z,7.43
2019-02-19T01:38:56.471Z,7.37
2019-02-19T01:41:27.410Z,7.22
2019-02-19T01:43:58.228Z,7.35
2019-02-19T01:46:28.988Z,7.36
2019-02-19T01:48:59.966Z,7.36
2019-02-19T01:51:30.983Z,7.34
2019-02-19T01:54:03.818Z,7.34
2019-02-19T01:56:34.560Z,7.31
2019-02-19T01:59:05.296Z,7.30
2019-02-19T02:01:36.362Z,7.30
2019-02-19T02:04:06.784Z,7.34
2019-02-19T02:06:37.603Z,7.22
2019-02-19T02:09:08.454Z,7.24
2019-02-19T02:11:38.854Z,7.25
2019-02-19T02:14:09.716Z,7.41
2019-02-19T02:16:40.102Z,7.25
2019-02-19T02:19:10.878Z,7.28
2019-02-19T02:21:41.702Z,7.31
2019-02-19T02:24:12.447Z,7.25
2019-02-19T02:26:43.189Z,7.27
2019-02-19T02:29:13.922Z,7.36
2019-02-19T02:31:44.746Z,7.33
2019-02-19T02:34:15.502Z,7.32
2019-02-19T02:36:46.407Z,7.32
2019-02-19T02:39:17.481Z,7.37
2019-02-19T02:41:48.305Z,7.31
2019-02-19T02:44:19.141Z,7.40
2019-02-19T02:46:49.977Z,7.52
2019-02-19T02:49:20.711Z,7.33
2019-02-19T02:51:51.435Z,7.40
2019-02-19T02:54:22.815Z,7.72
2019-02-19T02:56:53.673Z,7.39
2019-02-19T02:59:24.556Z,7.64
2019-02-19T03:01:55.837Z,7.34
2019-02-19T03:04:26.640Z,7.53
2019-02-19T03:06:59.129Z,7.48
2019-02-19T03:09:29.869Z,7.49
2019-02-19T03:12:00.613Z,7.44
2019-02-19T03:14:31.643Z,7.38
2019-02-19T03:17:02.455Z,7.38
2019-02-19T03:19:33.423Z,7.39
2019-02-19T03:22:04.247Z,7.45
2019-02-19T03:24:34.987Z,7.37
2019-02-19T03:27:05.824Z,7.34
2019-02-19T03:29:36.669Z,7.56
2019-02-19T03:32:07.507Z,7.39
2019-02-19T03:34:38.240Z,7.22
2019-02-19T03:37:08.987Z,7.24
2019-02-19T03:39:39.915Z,7.24
2019-02-19T03:42:11.063Z,7.16
2019-02-19T03:44:41.797Z,7.28
2019-02-19T03:47:12.631Z,7.54
2019-02-19T03:49:43.371Z,7.20
2019-02-19T03:52:14.202Z,7.20
2019-02-19T03:54:45.355Z,7.32
2019-02-19T03:57:16.298Z,7.12
2019-02-19T03:59:47.137Z,7.01
2019-02-19T04:02:17.950Z,7.04
2019-02-19T04:04:48.903Z,7.08
2019-02-19T04:07:19.750Z,7.08
2019-02-19T04:09:52.222Z,6.98
2019-02-19T04:12:23.060Z,7.14
2019-02-19T04:14:53.994Z,7.00
2019-02-19T04:17:24.827Z,7.04
2019-02-19T04:19:55.329Z,7.08
2019-02-19T04:22:26.194Z,7.21
2019-02-19T04:24:56.935Z,7.14
2019-02-19T04:27:28.372Z,6.90
2019-02-19T04:29:59.212Z,6.90
2019-02-19T04:32:30.037Z,7.04
2019-02-19T04:35:00.816Z,6.82
2019-02-19T04:37:31.625Z,6.99
2019-02-19T04:40:03.077Z,6.88
2019-02-19T04:42:33.907Z,6.92
2019-02-19T04:45:06.069Z,6.96
2019-02-19T04:47:36.801Z,6.89
2019-02-19T04:50:08.739Z,6.79
2019-02-19T04:52:39.506Z,6.76
2019-02-19T04:55:10.088Z,6.77
2019-02-19T04:57:40.876Z,6.84
2019-02-19T05:00:14.162Z,7.01
2019-02-19T05:02:45.047Z,6.73
2019-02-19T05:05:15.850Z,6.74
2019-02-19T05:07:46.986Z,6.84
2019-02-19T05:10:17.814Z,6.88
2019-02-19T05:12:48.553Z,6.84
2019-02-19T05:15:19.094Z,6.90
2019-02-19T05:17:49.934Z,6.92
2019-02-19T05:20:20.337Z,7.05
2019-02-19T05:22:51.220Z,6.90
2019-02-19T05:25:22.078Z,6.72
2019-02-19T05:27:52.849Z,6.73
2019-02-19T05:30:23.837Z,6.87
2019-02-19T05:32:54.312Z,6.79
2019-02-19T05:35:25.276Z,6.62
2019-02-19T05:37:56.226Z,6.60
2019-02-19T05:40:27.088Z,6.60
2019-02-19T05:42:57.978Z,6.58
2019-02-19T05:45:28.964Z,6.76
2019-02-19T05:47:59.845Z,6.67
2019-02-19T05:50:30.728Z,6.68
2019-02-19T05:53:01.582Z,6.64
2019-02-19T05:55:32.464Z,6.78
2019-02-19T05:58:03.237Z,6.64
2019-02-19T06:00:34.151Z,6.63
2019-02-19T06:03:05.080Z,6.72
2019-02-19T06:05:35.558Z,6.79
2019-02-19T06:08:06.038Z,7.05
2019-02-19T06:10:36.760Z,6.96
2019-02-19T06:13:07.612Z,6.84
2019-02-19T06:15:38.442Z,6.89
2019-02-19T06:18:09.287Z,6.89
2019-02-19T06:20:40.128Z,6.66
2019-02-19T06:23:10.514Z,6.64
2019-02-19T06:25:41.305Z,6.70
2019-02-19T06:28:11.766Z,6.66
2019-02-19T06:30:42.735Z,6.72
2019-02-19T06:33:13.826Z,6.81
2019-02-19T06:35:44.724Z,6.96
2019-02-19T06:38:17.128Z,6.75
2019-02-19T06:40:47.870Z,6.81
2019-02-19T06:43:18.786Z,6.80
2019-02-19T06:45:49.715Z,7.03
2019-02-19T06:48:20.568Z,6.84
2019-02-19T06:50:51.475Z,7.01
2019-02-19T06:53:23.908Z,7.01
2019-02-19T06:55:54.819Z,6.86
2019-02-19T06:58:25.634Z,6.97
2019-02-19T07:00:56.360Z,6.90
2019-02-19T07:03:30.238Z,6.99
2019-02-19T07:06:01.025Z,7.14
2019-02-19T07:08:31.484Z,7.25
2019-02-19T07:11:02.378Z,7.30
2019-02-19T07:13:56.418Z,7.27
2019-02-19T07:16:26.823Z,7.50
2019-02-19T07:18:57.842Z,7.52
2019-02-19T07:21:31.350Z,7.52
2019-02-19T07:24:04.681Z,7.42
2019-02-19T07:26:34.832Z,7.50
2019-02-19T07:29:05.696Z,7.67
2019-02-19T07:31:36.610Z,7.70
2019-02-19T07:34:07.086Z,7.75
2019-02-19T07:36:37.788Z,7.82
2019-02-19T07:39:09.089Z,7.96
2019-02-19T07:41:40.082Z,8.10
2019-02-19T07:44:11.096Z,8.11
2019-02-19T07:46:41.928Z,8.19
2019-02-19T07:49:12.678Z,8.14
2019-02-19T07:51:43.448Z,8.26
2019-02-19T07:54:14.335Z,8.17
2019-02-19T07:56:45.411Z,8.28
2019-02-19T07:59:16.358Z,8.30
2019-02-19T08:01:47.165Z,8.28
2019-02-19T08:04:18.118Z,8.35
2019-02-19T08:06:48.896Z,8.40
2019-02-19T08:09:19.709Z,8.55
2019-02-19T08:11:51.546Z,8.58
2019-02-19T08:14:22.319Z,8.60
2019-02-19T08:16:52.795Z,8.60
2019-02-19T08:19:23.521Z,8.64
2019-02-19T08:21:54.854Z,8.80
2019-02-19T08:24:27.190Z,8.80
2019-02-19T08:26:58.092Z,8.83
2019-02-19T08:29:28.921Z,8.84
2019-02-19T08:32:05.726Z,9.04
2019-02-19T08:34:36.528Z,9.08
2019-02-19T08:37:07.028Z,9.18
2019-02-19T08:39:39.604Z,9.14
2019-02-19T08:42:10.372Z,9.14
2019-02-19T08:44:41.127Z,9.22
2019-02-19T08:47:12.967Z,9.15
2019-02-19T08:49:43.802Z,9.20
2019-02-19T08:52:14.372Z,9.06
2019-02-19T08:54:44.935Z,9.10
2019-02-19T08:57:16.439Z,9.14
2019-02-19T08:59:47.436Z,9.18
2019-02-19T09:02:18.323Z,9.26
2019-02-19T09:04:49.059Z,9.37
2019-02-19T09:07:19.924Z,9.33
2019-02-19T09:09:50.705Z,9.42
2019-02-19T09:12:22.195Z,9.44
2019-02-19T09:14:52.962Z,9.42
2019-02-19T09:17:23.749Z,9.52
2019-02-19T09:19:54.702Z,9.46
2019-02-19T09:22:25.524Z,9.56
2019-02-19T09:24:56.349Z,9.50
2019-02-19T09:27:27.105Z,9.58
2019-02-19T09:29:57.932Z,9.74
2019-02-19T09:32:28.880Z,9.87
2019-02-19T09:34:59.396Z,9.84
2019-02-19T09:37:30.233Z,9.83
2019-02-19T09:40:05.261Z,9.92
2019-02-19T09:42:36.211Z,9.94
2019-02-19T09:45:11.142Z,9.90
2019-02-19T09:47:42.078Z,9.92
2019-02-19T09:50:12.910Z,9.93
2019-02-19T09:52:43.773Z,10.07
2019-02-19T09:55:14.686Z,9.99
2019-02-19T09:57:45.582Z,9.95
2019-02-19T10:00:16.468Z,9.84
2019-02-19T10:02:47.202Z,9.83
2019-02-19T10:05:18.031Z,9.88
2019-02-19T10:07:48.815Z,9.82
2019-02-19T10:10:21.949Z,9.94
2019-02-19T10:12:52.828Z,10.00
2019-02-19T10:15:23.649Z,9.90
2019-02-19T10:17:54.151Z,9.97
2019-02-19T10:20:25.016Z,9.98
2019-02-19T10:22:55.458Z,9.90
2019-02-19T10:25:26.288Z,10.08
2019-02-19T10:27:57.225Z,10.07
2019-02-19T10:30:27.924Z,10.12
2019-02-19T10:32:58.683Z,10.01
2019-02-19T10:35:29.724Z,9.91
2019-02-19T10:38:01.173Z,9.86
2019-02-19T10:40:32.003Z,9.90
2019-02-19T10:43:03.046Z,9.98
2019-02-19T10:45:33.518Z,10.06
2019-02-19T10:48:04.365Z,10.06
2019-02-19T10:50:35.242Z,10.03
2019-02-19T10:53:06.205Z,10.12
2019-02-19T10:55:37.068Z,10.18
2019-02-19T10:58:07.974Z,10.19
2019-02-19T11:00:38.851Z,10.31
2019-02-19T11:03:09.670Z,10.32
2019-02-19T11:05:40.512Z,10.29
2019-02-19T11:08:13.717Z,10.32
2019-02-19T11:10:44.804Z,10.46
2019-02-19T11:13:15.234Z,10.47
2019-02-19T11:15:46.132Z,10.50
2019-02-19T11:18:17.075Z,10.56
2019-02-19T11:20:48.036Z,10.68
2019-02-19T11:23:18.881Z,10.77
2019-02-19T11:25:49.654Z,10.58
2019-02-19T11:28:20.513Z,10.66
2019-02-19T11:30:51.457Z,10.86
2019-02-19T11:33:22.329Z,10.82
2019-02-19T11:35:52.796Z,10.86
2019-02-19T11:38:23.969Z,10.98
2019-02-19T11:40:54.872Z,11.10
2019-02-19T11:43:27.312Z,11.08
2019-02-19T11:45:58.086Z,10.98
2019-02-19T11:48:36.773Z,10.90
2019-02-19T11:51:01.390Z,10.66
2019-02-19T11:53:32.306Z,10.63
2019-02-19T11:56:03.275Z,10.56
2019-02-19T11:58:34.207Z,10.55
2019-02-19T12:01:05.427Z,10.68
2019-02-19T12:03:35.980Z,10.74
2019-02-19T12:06:07.535Z,10.70
2019-02-19T12:08:39.253Z,10.74
2019-02-19T12:11:10.459Z,10.70
2019-02-19T12:13:41.272Z,10.70
2019-02-19T12:16:12.020Z,10.76
2019-02-19T12:18:46.215Z,10.85
2019-02-19T12:21:15.438Z,10.85
2019-02-19T12:23:46.275Z,10.86
2019-02-19T12:26:17.109Z,10.89
2019-02-19T12:28:47.939Z,10.92
2019-02-19T12:31:18.878Z,11.01
2019-02-19T12:33:49.785Z,11.01
2019-02-19T12:36:20.561Z,11.10
2019-02-19T12:38:51.598Z,11.26
2019-02-19T12:41:22.392Z,11.24
2019-02-19T12:43:53.312Z,11.32
2019-02-19T12:46:24.884Z,11.28
2019-02-19T12:48:55.464Z,11.26
2019-02-19T12:51:26.707Z,11.10
2019-02-19T12:53:57.824Z,11.15
2019-02-19T12:56:28.671Z,11.10
2019-02-19T12:58:59.494Z,11.08
2019-02-19T13:01:30.221Z,11.10
2019-02-19T13:04:01.065Z,10.95
2019-02-19T13:06:31.826Z,11.00
2019-02-19T13:09:05.196Z,10.98
2019-02-19T13:11:35.581Z,10.97
2019-02-19T13:14:06.363Z,11.01
2019-02-19T13:16:38.704Z,10.84
2019-02-19T13:19:09.487Z,10.76
2019-02-19T13:21:40.330Z,10.78
2019-02-19T13:24:11.167Z,10.80
2019-02-19T13:26:42.707Z,10.72
2019-02-19T13:29:13.544Z,10.72
2019-02-19T13:31:44.379Z,10.75
2019-02-19T13:34:15.195Z,10.87
2019-02-19T13:36:46.545Z,10.74
2019-02-19T13:39:17.420Z,10.72
2019-02-19T13:41:48.230Z,10.68
2019-02-19T13:44:19.255Z,10.77
2019-02-19T13:46:49.992Z,10.72
2019-02-19T13:49:20.865Z,10.70
2019-02-19T13:51:53.532Z,10.69
2019-02-19T13:54:25.769Z,10.74
2019-02-19T13:56:56.732Z,10.99
2019-02-19T13:59:27.575Z,11.00
2019-02-19T14:01:58.154Z,10.94
2019-02-19T14:04:29.239Z,10.90
2019-02-19T14:06:59.646Z,10.93
2019-02-19T14:09:30.416Z,11.04
2019-02-19T14:12:01.251Z,11.08
2019-02-19T14:14:39.563Z,10.98
2019-02-19T14:17:10.393Z,11.04
2019-02-19T14:19:42.878Z,10.89
2019-02-19T14:22:30.203Z,10.95
2019-02-19T14:25:18.927Z,10.91
2019-02-19T14:27:51.473Z,10.92
2019-02-19T14:30:29.648Z,10.82
2019-02-19T14:33:02.098Z,10.81
2019-02-19T14:35:34.818Z,10.88
2019-02-19T14:38:22.212Z,10.86
2019-02-19T14:41:10.868Z,10.80
2019-02-19T14:43:59.325Z,10.80
2019-02-19T14:46:43.774Z,10.89
2019-02-19T14:49:15.885Z,10.78
2019-02-19T14:51:53.469Z,10.74
2019-02-19T14:54:28.724Z,10.74
2019-02-19T14:57:17.145Z,10.80
2019-02-19T14:59:49.684Z,10.83
2019-02-19T15:02:24.510Z,10.86
2019-02-19T15:04:56.629Z,10.80
2019-02-19T15:07:45.130Z,10.82
2019-02-19T15:10:27.205Z,10.79
2019-02-19T15:13:18.037Z,10.80
2019-02-19T15:15:59.632Z,10.79
2019-02-19T15:18:32.112Z,10.72
2019-02-19T15:21:07.658Z,10.71
2019-02-19T15:23:45.870Z,10.68
2019-02-19T15:26:33.261Z,10.68
2019-02-19T15:29:08.422Z,10.60
2019-02-19T15:31:46.946Z,10.56
2019-02-19T15:34:35.623Z,10.50
2019-02-19T15:37:10.964Z,10.47
2019-02-19T15:39:59.429Z,10.44
2019-02-19T15:42:48.353Z,10.46
2019-02-19T15:45:38.738Z,10.44
2019-02-19T15:48:27.397Z,10.56
2019-02-19T15:50:59.872Z,10.52
2019-02-19T15:53:32.343Z,10.54
2019-02-19T15:56:04.707Z,10.55
2019-02-19T15:58:37.267Z,10.48
2019-02-19T16:01:21.913Z,10.50
2019-02-19T16:04:01.072Z,10.38
2019-02-19T16:06:39.846Z,10.43
2019-02-19T16:09:15.478Z,10.33
2019-02-19T16:11:59.757Z,10.34
2019-02-19T16:14:32.338Z,10.38
2019-02-19T16:17:13.491Z,10.35
2019-02-19T16:19:45.960Z,10.36
2019-02-19T16:22:34.720Z,10.36
2019-02-19T16:25:18.126Z,10.38
2019-02-19T16:28:06.932Z,10.33
2019-02-19T16:30:57.181Z,10.31
2019-02-19T16:33:41.454Z,10.30
2019-02-19T16:36:19.865Z,10.26
2019-02-19T16:39:08.451Z,10.24
2019-02-19T16:41:40.884Z,10.26
2019-02-19T16:44:16.023Z,10.20
2019-02-19T16:46:53.857Z,10.18
2019-02-19T16:49:45.445Z,10.22
2019-02-19T16:52:21.012Z,10.22
2019-02-19T16:54:53.569Z,10.19
2019-02-19T16:57:26.032Z,10.19
2019-02-19T17:00:09.816Z,10.28
2019-02-19T17:02:51.406Z,10.28
2019-02-19T17:05:29.371Z,10.27
2019-02-19T17:08:04.439Z,10.22
2019-02-19T17:10:36.946Z,10.24
2019-02-19T17:13:18.397Z,10.22
2019-02-19T17:15:53.612Z,10.20
2019-02-19T17:18:31.617Z,10.22
2019-02-19T17:21:09.920Z,10.23
2019-02-19T17:23:45.258Z,10.26
2019-02-19T17:26:34.097Z,10.23
2019-02-19T17:29:06.621Z,10.22
2019-02-19T17:31:41.866Z,10.26
2019-02-19T17:34:16.908Z,10.22
2019-02-19T17:36:49.561Z,10.11
2019-02-19T17:39:25.026Z,10.01
2019-02-19T17:42:00.189Z,9.92
2019-02-19T17:44:46.666Z,9.75
2019-02-19T17:47:34.119Z,9.85
2019-02-19T17:50:15.044Z,9.80
2019-02-19T17:52:56.537Z,9.77
2019-02-19T17:55:31.917Z,9.94
2019-02-19T17:58:07.345Z,9.88
2019-02-19T18:00:58.007Z,9.92
2019-02-19T18:03:36.600Z,9.92
2019-02-19T18:06:09.030Z,9.88
2019-02-19T18:08:43.982Z,10.00
2019-02-19T18:11:22.249Z,9.90
2019-02-19T18:13:57.633Z,9.91
2019-02-19T18:16:30.216Z,9.88
2019-02-19T18:19:01.011Z,9.83
2019-02-19T18:21:32.052Z,9.82
2019-02-19T18:24:02.917Z,9.82
2019-02-19T18:26:33.869Z,9.84
2019-02-19T18:29:04.778Z,9.87
2019-02-19T18:31:35.547Z,9.89
2019-02-19T18:34:06.362Z,9.84
2019-02-19T18:36:37.181Z,9.88
2019-02-19T18:39:08.455Z,9.80
2019-02-19T18:41:39.292Z,9.80
2019-02-19T18:44:10.140Z,9.78
2019-02-19T18:46:40.956Z,9.81
2019-02-19T18:49:11.982Z,9.78
2019-02-19T18:51:42.737Z,9.85
2019-02-19T18:54:13.651Z,9.83
2019-02-19T18:56:44.524Z,9.84
2019-02-19T18:59:15.311Z,9.83
2019-02-19T19:01:46.562Z,9.88
2019-02-19T19:04:18.123Z,9.89
2019-02-19T19:06:48.983Z,9.85
2019-02-19T19:09:19.806Z,9.84
2019-02-19T19:11:50.653Z,9.89
2019-02-19T19:14:21.474Z,9.83
2019-02-19T19:16:52.237Z,9.82
2019-02-19T19:19:23.224Z,9.78
2019-02-19T19:21:54.106Z,9.62
2019-02-19T19:24:25.037Z,9.27
2019-02-19T19:26:57.804Z,8.86
2019-02-19T19:29:30.192Z,8.50
2019-02-19T19:32:01.035Z,8.06
2019-02-19T19:34:32.031Z,7.58
2019-02-19T19:37:03.028Z,7.45
2019-02-19T19:39:33.669Z,7.32
2019-02-19T19:42:06.592Z,7.24
2019-02-19T19:44:37.587Z,7.22
2019-02-19T19:47:08.579Z,7.22
2019-02-19T19:49:39.689Z,7.26
2019-02-19T19:52:10.781Z,7.24
2019-02-19T19:54:41.288Z,7.32
2019-02-19T19:57:12.152Z,7.20
2019-02-19T19:59:43.129Z,7.30
2019-02-19T20:02:14.042Z,7.30
2019-02-19T20:04:45.096Z,7.28
2019-02-19T20:07:16.131Z,7.37
2019-02-19T20:09:47.117Z,7.29
2019-02-19T20:12:17.903Z,7.24
2019-02-19T20:14:50.173Z,7.28
2019-02-19T20:17:20.702Z,7.28
2019-02-19T20:19:51.848Z,7.30
2019-02-19T20:22:23.927Z,7.22
2019-02-19T20:24:56.294Z,7.23
2019-02-19T20:27:27.250Z,7.32
2019-02-19T20:29:59.719Z,7.30
2019-02-19T20:32:30.694Z,7.25
2019-02-19T20:35:01.475Z,7.32
2019-02-19T20:37:32.455Z,7.32
2019-02-19T20:40:03.586Z,7.14
2019-02-19T20:42:34.517Z,7.23
2019-02-19T20:45:08.783Z,7.20
2019-02-19T20:47:39.684Z,7.10
2019-02-19T20:50:14.784Z,7.12
2019-02-19T20:52:45.742Z,7.06
2019-02-19T20:55:16.343Z,7.11
2019-02-19T20:57:47.786Z,7.17
2019-02-19T21:00:18.713Z,7.14
2019-02-19T21:02:50.531Z,7.18
2019-02-19T21:05:21.452Z,7.16
2019-02-19T21:07:52.378Z,7.22
2019-02-19T21:10:23.288Z,7.16
2019-02-19T21:12:54.605Z,7.22
2019-02-19T21:15:25.163Z,7.30
2019-02-19T21:17:56.037Z,7.20
2019-02-19T21:20:26.957Z,7.26
2019-02-19T21:22:57.828Z,7.37
2019-02-19T21:25:31.112Z,7.30
2019-02-19T21:28:01.531Z,7.20
2019-02-19T21:30:35.269Z,7.11
2019-02-19T21:33:06.146Z,7.19
2019-02-19T21:35:37.020Z,7.15
2019-02-19T21:38:07.856Z,7.03
2019-02-19T21:40:38.788Z,7.14
2019-02-19T21:43:09.792Z,7.04
2019-02-19T21:45:40.370Z,7.04
2019-02-19T21:48:11.968Z,6.98
2019-02-19T21:50:42.833Z,7.14
2019-02-19T21:53:13.588Z,7.10
2019-02-19T21:55:44.123Z,7.02
2019-02-19T21:58:14.572Z,6.90
2019-02-19T22:00:45.353Z,7.08
2019-02-19T22:03:16.087Z,6.96
2019-02-19T22:05:46.531Z,6.98
2019-02-19T22:08:17.401Z,7.07
2019-02-19T22:10:48.202Z,7.08
2019-02-19T22:13:19.051Z,7.14
2019-02-19T22:15:49.613Z,7.24
2019-02-19T22:18:21.532Z,7.14
2019-02-19T22:20:54.154Z,7.24
2019-02-19T22:23:25.662Z,7.14
2019-02-19T22:25:56.592Z,7.26
2019-02-19T22:28:27.429Z,7.27
2019-02-19T22:30:58.268Z,7.28
2019-02-19T22:33:29.109Z,7.30
2019-02-19T22:35:59.930Z,7.14
2019-02-19T22:38:30.668Z,7.22
2019-02-19T22:41:01.505Z,7.19
2019-02-19T22:43:31.874Z,7.14
2019-02-19T22:46:02.787Z,7.12
2019-02-19T22:48:33.602Z,7.18
2019-02-19T22:51:04.460Z,7.04
2019-02-19T22:53:39.377Z,7.02
2019-02-19T22:56:11.888Z,6.92
2019-02-19T22:58:42.706Z,6.92
2019-02-19T23:01:22.154Z,6.94
2019-02-19T23:03:52.938Z,6.94
2019-02-19T23:06:23.800Z,6.96
2019-02-19T23:08:54.609Z,6.98
2019-02-19T23:11:25.469Z,6.94
2019-02-19T23:13:56.297Z,6.93
2019-02-19T23:16:27.156Z,7.04
2019-02-19T23:18:57.891Z,6.96
2019-02-19T23:21:28.718Z,7.01
2019-02-19T23:23:59.432Z,6.95
2019-02-19T23:26:30.172Z,7.00
2019-02-19T23:29:00.945Z,6.98
2019-02-19T23:31:31.486Z,7.07
2019-02-19T23:34:02.588Z,6.98
2019-02-19T23:36:35.127Z,7.04
2019-02-19T23:39:06.986Z,7.10
2019-02-19T23:41:37.784Z,7.11
2019-02-19T23:44:08.788Z,7.18
2019-02-19T23:46:39.766Z,7.14
2019-02-19T23:49:10.578Z,7.10
2019-02-19T23:51:41.333Z,7.10
2019-02-19T23:54:12.287Z,7.11
2019-02-19T23:56:42.791Z,7.08
2019-02-19T23:59:13.530Z,7.10
